OIMB  Birjand  Airport

Birjand, Iran

Add Bookmark
ICAO OIMB
Type Airport
Status Operational
Latitude
32° 53' 53" N
32.898102
Longitude
59° 15' 57" E
59.266102
Local (GMT +4.5 ) UTC
Jul 24, 2016 03:31 am Jul 23, 2016 23:01
Sunrise-Sunset Local UTC
Begin Civil Twilight 05:12 am 00:42
Sunrise 05:40 am 01:10
Sunset 07:38 pm 15:08
End Civil Twilight 08:06 pm 15:36
VFR
VFR
MVFR
MVFR
IFR
IFR
LIFR
LIFR
Unknown
Unavailable

Current Weather

METAR Observed VFR
OIMB 141900Z 06010KT 9999 FEW035 22/08 Q1016 Thu, Jul 14, 2016 @ 19:00 UTC
(1 Week, 2 Days, 4 Hours, 1 Minute ago)
Visual Flight Rules
Wind Visibility Clouds Conditions
060° at 10 knots (19 kph) 10 km or more
  • Few at 3,500 ft AGL
  • No significant weather
Temperatures Readings Precipitation
Current Temp
22°C
72°F
Dewpoint
8°C
46°F
Humidity 41%
Altimeter 30" Hg
Sea Level Pressure 1,016 mb
Field Elevation
1,491 m
4,892 ft
None Recorded
-
-

CheckWX.com is intended as a tool to help pilots better visualize weather data. It is not intended as a substitute for an official weather briefing obtained from a Flight Service Station. CheckWX.com does not meet the FAA requirements for an official pre-flight weather briefing. Therefore, it's important that pilots still call and obtain an official FSS pre-flight weather briefing.

© 2007-2016 CheckWX.com
23:01:57 UTC